TimeCST,TemperatureF,Dew PointF,Humidity,Sea Level PressureIn,VisibilityMPH,Wind Direction,Wind SpeedMPH,Gust SpeedMPH,PrecipitationIn,Events,Conditions,WindDirDegrees,DateUTC
12:09 AM,15.8,10.4,79,30.32,0.8,Calm,Calm,-,N/A,Snow,Light Snow,0,2013-03-06 06:09:00
12:29 AM,15.8,10.4,79,30.33,0.8,NNW,3.5,-,N/A,Snow,Light Snow,330,2013-03-06 06:29:00
12:49 AM,15.8,10.4,79,30.32,1.5,Calm,Calm,-,N/A,Snow,Light Snow,0,2013-03-06 06:49:00
1:09 AM,15.8,10.4,79,30.32,1.2,Calm,Calm,-,N/A,Snow,Light Snow,0,2013-03-06 07:09:00
1:29 AM,15.8,10.4,79,30.33,1.0,Calm,Calm,-,N/A,Snow,Light Snow,0,2013-03-06 07:29:00
1:49 AM,14.0,10.4,86,30.33,1.5,NW,3.5,-,N/A,Snow,Light Snow,320,2013-03-06 07:49:00
2:09 AM,12.2,8.6,85,30.33,2.5,Calm,Calm,-,N/A,Snow,Light Snow,0,2013-03-06 08:09:00
2:29 AM,10.4,6.8,85,30.33,4.0,Calm,Calm,-,N/A,Snow,Light Snow,0,2013-03-06 08:29:00
2:49 AM,6.8,1.4,79,30.33,1.0,Calm,Calm,-,N/A,Snow,Light Snow,0,2013-03-06 08:49:00
3:09 AM,5.0,-0.4,78,30.33,0.8,Calm,Calm,-,N/A,Snow,Light Snow,0,2013-03-06 09:09:00
3:29 AM,3.2,-2.2,78,30.34,1.8,Calm,Calm,-,N/A,Snow,Light Snow,0,2013-03-06 09:29:00
3:49 AM,1.4,-4.0,78,30.34,4.0,Calm,Calm,-,N/A,Snow,Light Snow,0,2013-03-06 09:49:00
4:09 AM,-0.4,-5.8,78,30.34,10.0,Calm,Calm,-,N/A,,Scattered Clouds,0,2013-03-06 10:09:00
4:29 AM,-2.2,-7.6,78,30.34,10.0,Calm,Calm,-,N/A,,Clear,0,2013-03-06 10:29:00
4:49 AM,-2.2,-7.6,78,30.34,10.0,Calm,Calm,-,N/A,,Clear,0,2013-03-06 10:49:00
5:09 AM,-4.0,-9.4,78,30.35,10.0,Calm,Calm,-,N/A,,Clear,0,2013-03-06 11:09:00
5:49 AM,-5.8,-9.4,84,30.35,10.0,Calm,Calm,-,N/A,,Clear,0,2013-03-06 11:49:00
6:09 AM,-5.8,-11.2,77,30.36,2.5,Calm,Calm,-,N/A,Snow,Light Snow,0,2013-03-06 12:09:00
6:29 AM,-7.6,-11.2,84,30.36,5.0,Calm,Calm,-,N/A,Snow,Light Snow,0,2013-03-06 12:29:00
6:49 AM,-7.6,-13.0,77,30.37,4.0,Calm,Calm,-,N/A,Snow,Light Snow,0,2013-03-06 12:49:00
7:09 AM,-7.6,-13.0,77,30.37,10.0,Calm,Calm,-,N/A,,Scattered Clouds,0,2013-03-06 13:09:00
7:29 AM,-7.6,-11.2,84,30.37,2.5,Calm,Calm,-,N/A,Snow,Light Snow,0,2013-03-06 13:29:00
7:49 AM,-5.8,-9.4,84,30.37,7.0,Calm,Calm,-,N/A,Snow,Light Snow,0,2013-03-06 13:49:00
8:09 AM,-0.4,-4.0,85,30.37,10.0,Calm,Calm,-,N/A,,Clear,0,2013-03-06 14:09:00
8:29 AM,3.2,-0.4,85,30.38,5.0,Calm,Calm,-,N/A,,Clear,0,2013-03-06 14:29:00
8:49 AM,12.2,8.6,85,30.37,10.0,NW,3.5,-,N/A,,Clear,320,2013-03-06 14:49:00
9:09 AM,17.6,12.2,79,30.38,10.0,NW,3.5,-,N/A,,Scattered Clouds,320,2013-03-06 15:09:00
9:29 AM,19.4,12.2,74,30.38,7.0,NNE,3.5,-,N/A,Snow,Light Snow,30,2013-03-06 15:29:00
9:49 AM,23.0,15.8,74,30.38,10.0,NW,5.8,-,N/A,,Overcast,320,2013-03-06 15:49:00
10:09 AM,21.2,12.2,68,30.37,10.0,NW,5.8,-,N/A,,Overcast,310,2013-03-06 16:09:00
10:29 AM,19.4,12.2,74,30.37,10.0,NNW,6.9,-,N/A,,Overcast,330,2013-03-06 16:29:00
10:49 AM,21.2,12.2,68,30.37,10.0,NNW,6.9,-,N/A,,Overcast,330,2013-03-06 16:49:00
11:09 AM,21.2,12.2,68,30.37,10.0,NNW,4.6,-,N/A,,Overcast,340,2013-03-06 17:09:00
11:29 AM,23.0,10.4,59,30.36,10.0,North,4.6,-,N/A,,Overcast,350,2013-03-06 17:29:00
11:49 AM,24.8,12.2,59,30.36,10.0,Calm,Calm,-,N/A,,Scattered Clouds,0,2013-03-06 17:49:00
12:09 PM,26.6,15.8,64,30.36,10.0,NNW,5.8,-,N/A,,Scattered Clouds,330,2013-03-06 18:09:00
12:29 PM,26.6,12.2,55,30.35,10.0,NNW,6.9,-,N/A,,Mostly Cloudy,330,2013-03-06 18:29:00
12:49 PM,26.6,12.2,55,30.34,10.0,NW,4.6,-,N/A,,Mostly Cloudy,320,2013-03-06 18:49:00
1:09 PM,26.6,12.2,55,30.34,10.0,NNW,5.8,-,N/A,,Mostly Cloudy,330,2013-03-06 19:09:00
1:29 PM,26.6,12.2,55,30.33,10.0,NNE,5.8,-,N/A,,Mostly Cloudy,20,2013-03-06 19:29:00
1:49 PM,24.8,10.4,54,30.33,10.0,North,4.6,-,N/A,,Mostly Cloudy,360,2013-03-06 19:49:00
2:09 PM,26.6,12.2,55,30.33,10.0,NW,6.9,-,N/A,,Scattered Clouds,320,2013-03-06 20:09:00
2:29 PM,28.4,12.2,51,30.33,10.0,NNW,5.8,-,N/A,,Scattered Clouds,340,2013-03-06 20:29:00
2:49 PM,28.4,14.0,55,30.33,10.0,NNW,5.8,-,N/A,,Mostly Cloudy,340,2013-03-06 20:49:00
3:09 PM,28.4,14.0,55,30.32,10.0,NW,5.8,-,N/A,,Overcast,320,2013-03-06 21:09:00
3:29 PM,28.4,10.4,47,30.31,10.0,North,10.4,-,N/A,,Scattered Clouds,360,2013-03-06 21:29:00
3:49 PM,26.6,10.4,51,30.31,10.0,North,6.9,-,N/A,,Clear,360,2013-03-06 21:49:00
4:09 PM,26.6,10.4,51,30.32,10.0,NNW,8.1,-,N/A,,Scattered Clouds,340,2013-03-06 22:09:00
4:29 PM,26.6,12.2,55,30.32,10.0,NW,5.8,-,N/A,,Scattered Clouds,320,2013-03-06 22:29:00
4:49 PM,24.8,12.2,59,30.32,10.0,NW,4.6,-,N/A,,Scattered Clouds,320,2013-03-06 22:49:00
5:09 PM,24.8,10.4,54,30.32,10.0,NNW,5.8,-,N/A,,Mostly Cloudy,330,2013-03-06 23:09:00
5:29 PM,21.2,8.6,58,30.32,10.0,Calm,Calm,-,N/A,,Overcast,0,2013-03-06 23:29:00
5:49 PM,19.4,6.8,58,30.32,10.0,Calm,Calm,-,N/A,,Mostly Cloudy,0,2013-03-06 23:49:00
6:09 PM,15.8,5.0,62,30.33,10.0,Calm,Calm,-,N/A,,Overcast,0,2013-03-07 00:09:00
6:29 PM,12.2,1.4,62,30.32,10.0,Calm,Calm,-,N/A,,Overcast,0,2013-03-07 00:29:00
6:49 PM,12.2,1.4,62,30.33,10.0,Calm,Calm,-,N/A,,Overcast,0,2013-03-07 00:49:00
7:09 PM,10.4,1.4,67,30.33,10.0,Calm,Calm,-,N/A,,Mostly Cloudy,0,2013-03-07 01:09:00
7:29 PM,8.6,1.4,73,30.34,10.0,Calm,Calm,-,N/A,,Overcast,0,2013-03-07 01:29:00
7:49 PM,8.6,3.2,79,30.33,10.0,Calm,Calm,-,N/A,,Overcast,0,2013-03-07 01:49:00
8:09 PM,10.4,3.2,73,30.34,10.0,Calm,Calm,-,N/A,,Overcast,0,2013-03-07 02:09:00
8:29 PM,10.4,6.8,85,30.35,10.0,Calm,Calm,-,N/A,,Overcast,0,2013-03-07 02:29:00
8:49 PM,12.2,6.8,79,30.35,10.0,Calm,Calm,-,N/A,,Overcast,0,2013-03-07 02:49:00
9:09 PM,12.2,6.8,79,30.35,10.0,Calm,Calm,-,N/A,,Overcast,0,2013-03-07 03:09:00
9:29 PM,12.2,6.8,79,30.35,10.0,Calm,Calm,-,N/A,,Overcast,0,2013-03-07 03:29:00
9:49 PM,10.4,6.8,85,30.35,10.0,Calm,Calm,-,N/A,,Overcast,0,2013-03-07 03:49:00
10:09 PM,10.4,3.2,73,30.35,10.0,Calm,Calm,-,N/A,,Overcast,0,2013-03-07 04:09:00
10:29 PM,8.6,1.4,73,30.35,10.0,Calm,Calm,-,N/A,,Mostly Cloudy,0,2013-03-07 04:29:00
10:49 PM,6.8,1.4,79,30.35,10.0,Calm,Calm,-,N/A,,Mostly Cloudy,0,2013-03-07 04:49:00
11:09 PM,3.2,-0.4,85,30.35,10.0,Calm,Calm,-,N/A,,Scattered Clouds,0,2013-03-07 05:09:00
11:29 PM,3.2,-0.4,85,30.35,10.0,Calm,Calm,-,N/A,,Overcast,0,2013-03-07 05:29:00
11:49 PM,3.2,-0.4,85,30.35,10.0,Calm,Calm,-,N/A,,Overcast,0,2013-03-07 05:49:00